createdAt,value
2023-03-30T16:17:16.331Z,46.70
2023-03-30T16:19:43.706Z,44.63
2023-03-30T16:22:11.946Z,49.05
2023-03-30T16:24:39.244Z,44.00
2023-03-30T16:27:06.970Z,44.15
2023-03-30T16:29:34.453Z,45.92
2023-03-30T16:32:01.485Z,49.42
2023-03-30T16:34:29.054Z,52.13
2023-03-30T16:36:56.037Z,43.92
2023-03-30T16:39:27.979Z,49.05
2023-03-30T16:41:56.120Z,48.15
2023-03-30T16:44:24.282Z,47.63
2023-03-30T16:46:52.195Z,48.80
2023-03-30T16:49:24.653Z,56.85
2023-03-30T16:51:55.212Z,54.55
2023-03-30T16:54:31.146Z,51.00
2023-03-30T16:57:04.015Z,49.35
2023-03-30T16:59:32.856Z,56.65
2023-03-30T17:02:00.494Z,55.33
2023-03-30T17:04:27.489Z,54.10
2023-03-30T17:06:55.183Z,51.80
2023-03-30T17:09:22.270Z,53.75
2023-03-30T17:11:49.725Z,52.70
2023-03-30T17:14:17.173Z,51.10
2023-03-30T17:16:45.372Z,53.67
2023-03-30T17:19:13.168Z,49.42
2023-03-30T17:21:47.465Z,52.05
2023-03-30T17:24:18.349Z,51.90
2023-03-30T17:26:49.174Z,54.38
2023-03-30T17:29:19.894Z,59.07
2023-03-30T17:31:52.741Z,52.17
2023-03-30T17:34:21.498Z,55.97
2023-03-30T17:36:51.164Z,57.17
2023-03-30T17:39:21.946Z,63.22
2023-03-30T17:41:49.406Z,55.70
2023-03-30T17:44:16.393Z,59.28
2023-03-30T17:46:43.607Z,56.08
2023-03-30T17:49:16.661Z,55.85
2023-03-30T17:51:43.513Z,50.45
2023-03-30T17:54:10.424Z,50.38
2023-03-30T17:56:37.215Z,50.55
2023-03-30T17:59:04.041Z,51.65
2023-03-30T18:01:31.069Z,53.55
2023-03-30T18:03:58.121Z,50.20
2023-03-30T18:06:25.296Z,48.13
2023-03-30T18:08:52.261Z,47.58
2023-03-30T18:11:19.191Z,46.00
2023-03-30T18:13:46.112Z,46.42
2023-03-30T18:16:20.617Z,46.90
2023-03-30T18:18:56.750Z,50.10
2023-03-30T18:21:28.070Z,49.47
2023-03-30T18:24:03.762Z,51.78
2023-03-30T18:26:33.369Z,49.85
2023-03-30T18:29:00.607Z,51.78
2023-03-30T18:31:27.822Z,49.63
2023-03-30T18:33:56.998Z,50.78
2023-03-30T18:36:28.802Z,48.47
2023-03-30T18:38:58.186Z,54.77
2023-03-30T18:41:26.263Z,53.92
2023-03-30T18:43:53.466Z,54.15
2023-03-30T18:46:20.453Z,49.47
2023-03-30T18:48:48.562Z,51.95
2023-03-30T18:51:15.362Z,56.97
2023-03-30T18:53:42.290Z,51.30
2023-03-30T18:56:11.461Z,53.65
2023-03-30T18:58:42.155Z,51.60
2023-03-30T19:01:10.047Z,53.25
2023-03-30T19:03:37.017Z,53.08
2023-03-30T19:06:04.239Z,50.15
2023-03-30T19:08:31.415Z,54.80
2023-03-30T19:10:58.548Z,55.10
2023-03-30T19:13:26.391Z,57.03
2023-03-30T19:15:54.318Z,53.65
2023-03-30T19:18:21.666Z,52.38
2023-03-30T19:20:50.124Z,50.22
2023-03-30T19:23:23.530Z,51.80
2023-03-30T19:25:50.883Z,48.72
2023-03-30T19:28:18.086Z,45.78
2023-03-30T19:30:46.023Z,45.65
2023-03-30T19:33:19.901Z,49.28
2023-03-30T19:35:50.046Z,44.78
2023-03-30T19:38:18.115Z,47.83
2023-03-30T19:40:45.084Z,46.45
2023-03-30T19:43:11.990Z,45.22
2023-03-30T19:45:39.285Z,48.28
2023-03-30T19:48:06.577Z,50.17
2023-03-30T19:50:33.821Z,47.80
2023-03-30T19:53:02.238Z,47.55
2023-03-30T19:55:30.200Z,51.70
2023-03-30T19:57:57.268Z,54.33
2023-03-30T20:00:24.977Z,55.78
2023-03-30T20:02:56.481Z,53.58
2023-03-30T20:05:26.204Z,56.33
2023-03-30T20:07:53.443Z,55.22
2023-03-30T20:10:23.483Z,51.05
2023-03-30T20:12:51.738Z,52.03
2023-03-30T20:15:20.142Z,45.05
2023-03-30T20:17:47.873Z,47.65
2023-03-30T20:20:22.725Z,41.63
2023-03-30T20:22:54.623Z,44.20
2023-03-30T20:27:49.714Z,45.92
2023-03-30T20:30:17.259Z,42.95
2023-03-30T20:32:50.446Z,39.80
2023-03-30T20:35:25.770Z,37.80
2023-03-30T20:37:54.476Z,38.55
2023-03-30T20:40:21.569Z,37.33
2023-03-30T20:42:48.878Z,35.42
2023-03-30T20:45:17.759Z,32.85
2023-03-30T20:47:50.218Z,29.58
2023-03-30T20:50:17.293Z,28.00
2023-03-30T20:52:44.196Z,26.30
2023-03-30T20:55:11.019Z,27.05
2023-03-30T20:57:37.890Z,25.92
2023-03-30T21:00:07.428Z,25.70
2023-03-30T21:02:34.772Z,24.90
2023-03-30T21:05:02.163Z,27.48
2023-03-30T21:07:29.878Z,22.42
2023-03-30T21:09:56.693Z,23.63
2023-03-30T21:12:23.675Z,25.25
2023-03-30T21:14:50.558Z,36.78
2023-03-30T21:17:17.476Z,22.23
2023-03-30T21:19:44.262Z,22.13
2023-03-30T21:22:11.238Z,23.40
2023-03-30T21:24:38.044Z,21.08
2023-03-30T21:27:04.818Z,25.95
2023-03-30T21:29:32.433Z,20.40
2023-03-30T21:31:59.427Z,30.30
2023-03-30T21:34:26.199Z,72.38
2023-03-30T21:36:53.281Z,132.25
2023-03-30T21:39:20.309Z,36.03
2023-03-30T21:41:47.059Z,36.75
2023-03-30T21:44:13.846Z,24.63
2023-03-30T21:46:40.736Z,117.60
2023-03-30T21:49:07.730Z,18.75
2023-03-30T21:51:34.621Z,21.77
2023-03-30T21:54:01.478Z,17.02
2023-03-30T21:56:30.079Z,17.90
2023-03-30T21:58:57.690Z,18.23
2023-03-30T22:01:25.527Z,18.20
2023-03-30T22:03:53.464Z,19.55
2023-03-30T22:06:20.960Z,20.85
2023-03-30T22:08:48.053Z,21.20
2023-03-30T22:11:18.493Z,19.83
2023-03-30T22:13:47.972Z,21.70
2023-03-30T22:16:22.682Z,22.58
2023-03-30T22:18:50.349Z,28.42
2023-03-30T22:21:25.605Z,28.08
2023-03-30T22:23:54.650Z,27.70
2023-03-30T22:26:22.400Z,27.85
2023-03-30T22:28:50.081Z,27.88
2023-03-30T22:31:17.093Z,28.90
2023-03-30T22:33:45.865Z,26.85
2023-03-30T22:36:21.394Z,25.30
2023-03-30T22:38:49.818Z,27.40
2023-03-30T22:41:18.735Z,24.05
2023-03-30T22:43:46.884Z,22.40
2023-03-30T22:46:13.881Z,27.65
2023-03-30T22:48:41.695Z,19.35
2023-03-30T22:51:08.874Z,18.40
2023-03-30T22:53:35.840Z,19.85
2023-03-30T22:56:02.831Z,20.83
2023-03-30T22:58:29.867Z,12.82
2023-03-30T23:01:02.304Z,19.80
2023-03-30T23:03:29.439Z,13.68
2023-03-30T23:06:01.132Z,16.02
2023-03-30T23:10:57.454Z,13.15
2023-03-30T23:13:24.312Z,13.55
2023-03-30T23:15:51.161Z,12.70
2023-03-30T23:18:17.996Z,12.20
2023-03-30T23:20:46.828Z,13.75
2023-03-30T23:23:14.369Z,12.18
2023-03-30T23:25:49.442Z,15.98
2023-03-30T23:28:16.879Z,11.55
2023-03-30T23:30:44.964Z,9.82
2023-03-30T23:33:12.172Z,13.38
2023-03-30T23:35:39.440Z,14.63
2023-03-30T23:38:06.381Z,10.10
2023-03-30T23:40:33.199Z,13.23
2023-03-30T23:43:00.488Z,9.70
2023-03-30T23:45:27.284Z,9.70
2023-03-30T23:47:54.126Z,11.82
2023-03-30T23:50:20.933Z,8.63
2023-03-30T23:52:47.688Z,14.43
2023-03-30T23:55:15.660Z,12.60
2023-03-30T23:57:42.451Z,13.40
